createdAt,value
2019-03-21T00:00:16.784Z,88.2
2019-03-21T00:01:16.839Z,88.6
2019-03-21T00:02:17.138Z,88.7
2019-03-21T00:03:16.439Z,88.7
2019-03-21T00:04:16.739Z,88.5
2019-03-21T00:05:17.025Z,88.4
2019-03-21T00:06:16.327Z,88.4
2019-03-21T00:07:16.610Z,88.5
2019-03-21T00:08:16.913Z,88.8
2019-03-21T00:09:17.232Z,88.8
2019-03-21T00:10:16.513Z,88.9
2019-03-21T00:11:16.609Z,88.9
2019-03-21T00:12:16.930Z,88.6
2019-03-21T00:13:17.229Z,88.5
2019-03-21T00:14:16.509Z,88.5
2019-03-21T00:15:16.820Z,88.5
2019-03-21T00:16:17.121Z,88.5
2019-03-21T00:17:16.445Z,88.6
2019-03-21T00:18:16.749Z,88.7
2019-03-21T00:19:17.061Z,88.8
2019-03-21T00:20:16.341Z,88.9
2019-03-21T00:21:16.415Z,88.8
2019-03-21T00:22:16.710Z,88.8
2019-03-21T00:23:16.977Z,89.0
2019-03-21T00:24:17.292Z,89.1
2019-03-21T00:25:16.581Z,88.9
2019-03-21T00:26:16.876Z,89.0
2019-03-21T00:27:17.201Z,89.1
2019-03-21T00:28:16.525Z,89.1
2019-03-21T00:29:16.854Z,89.1
2019-03-21T00:30:17.169Z,89.1
2019-03-21T00:31:17.211Z,89.4
2019-03-21T00:32:16.503Z,89.3
2019-03-21T00:33:16.774Z,89.2
2019-03-21T00:34:17.101Z,89.0
2019-03-21T00:35:16.406Z,89.0
2019-03-21T00:36:16.731Z,89.1
2019-03-21T00:37:17.021Z,89.2
2019-03-21T00:38:16.313Z,89.3
2019-03-21T00:39:16.659Z,89.3
2019-03-21T00:40:16.980Z,89.4
2019-03-21T00:41:17.001Z,89.4
2019-03-21T00:42:16.301Z,89.7
2019-03-21T00:43:16.601Z,89.7
2019-03-21T00:44:18.679Z,89.7
2019-03-21T00:45:16.980Z,89.7
2019-03-21T00:46:17.284Z,89.6
2019-03-21T00:47:16.571Z,89.5
2019-03-21T00:48:16.881Z,89.5
2019-03-21T00:49:17.189Z,89.5
2019-03-21T00:50:16.497Z,89.6
2019-03-21T00:51:16.558Z,89.7
2019-03-21T00:52:16.874Z,89.7
2019-03-21T00:53:17.204Z,89.9
2019-03-21T00:54:16.521Z,89.8
2019-03-21T00:55:16.826Z,89.9
2019-03-21T00:56:17.099Z,90.1
2019-03-21T00:57:16.433Z,90.2
2019-03-21T00:58:17.191Z,90.4
2019-03-21T00:59:16.540Z,90.4
2019-03-21T01:00:16.890Z,90.5
2019-03-21T01:01:16.944Z,90.4
2019-03-21T01:02:17.314Z,90.4
2019-03-21T01:03:16.657Z,90.4
2019-03-21T01:04:17.014Z,90.5
2019-03-21T01:05:16.372Z,90.9
2019-03-21T01:06:16.669Z,91.1
2019-03-21T01:07:16.979Z,91.1
2019-03-21T01:08:17.279Z,90.9
2019-03-21T01:09:17.617Z,90.8
2019-03-21T01:10:16.977Z,90.7
2019-03-21T01:11:16.991Z,90.6
2019-03-21T01:12:17.316Z,90.3
2019-03-21T01:13:16.604Z,90.3
2019-03-21T01:14:16.921Z,90.2
2019-03-21T01:15:17.209Z,90.3
2019-03-21T01:16:16.511Z,90.3
2019-03-21T01:17:16.825Z,90.3
2019-03-21T01:18:17.131Z,90.3
2019-03-21T01:19:16.447Z,90.4
2019-03-21T01:20:16.723Z,90.5
2019-03-21T01:21:16.790Z,90.8
2019-03-21T01:22:17.092Z,90.9
2019-03-21T01:23:16.407Z,90.9
2019-03-21T01:24:16.702Z,90.8
2019-03-21T01:25:17.011Z,90.7
2019-03-21T01:26:16.294Z,90.8
2019-03-21T01:27:16.834Z,90.8
2019-03-21T01:28:17.183Z,90.8
2019-03-21T01:29:16.491Z,90.5
2019-03-21T01:30:16.807Z,90.5
2019-03-21T01:31:16.868Z,90.5
2019-03-21T01:32:17.225Z,90.5
2019-03-21T01:33:16.544Z,90.6
2019-03-21T01:34:16.864Z,90.6
2019-03-21T01:35:17.177Z,90.7
2019-03-21T01:36:16.487Z,90.8
2019-03-21T01:37:16.889Z,91.0
2019-03-21T01:38:17.211Z,90.9
2019-03-21T01:39:16.506Z,90.8
2019-03-21T01:40:16.799Z,90.7
2019-03-21T01:41:16.852Z,90.7
2019-03-21T01:42:17.189Z,90.7
2019-03-21T01:43:16.492Z,90.8
2019-03-21T01:44:16.812Z,90.9
2019-03-21T01:45:17.110Z,91.0
2019-03-21T01:46:16.377Z,91.1
2019-03-21T01:47:16.697Z,91.2
2019-03-21T01:48:17.031Z,91.3
2019-03-21T01:49:16.304Z,91.2
2019-03-21T01:50:16.607Z,91.2
2019-03-21T01:51:16.642Z,91.1
2019-03-21T01:52:16.945Z,91.1
2019-03-21T01:53:17.264Z,91.3
2019-03-21T01:54:16.576Z,91.5
2019-03-21T01:55:16.879Z,91.6
2019-03-21T01:56:17.185Z,91.5
2019-03-21T01:57:16.506Z,91.7
2019-03-21T01:58:16.805Z,91.8
2019-03-21T01:59:17.121Z,91.7
2019-03-21T02:00:16.450Z,91.7
2019-03-21T02:01:16.475Z,91.8
2019-03-21T02:02:16.791Z,91.8
2019-03-21T02:03:17.104Z,91.8
2019-03-21T02:04:16.400Z,91.6
2019-03-21T02:05:16.723Z,91.4
2019-03-21T02:06:17.012Z,91.4
2019-03-21T02:07:16.343Z,91.3
2019-03-21T02:08:16.653Z,91.3
2019-03-21T02:09:16.986Z,91.2
2019-03-21T02:10:16.311Z,91.2
2019-03-21T02:11:16.350Z,91.2
2019-03-21T02:12:16.615Z,91.1
2019-03-21T02:13:16.924Z,91.4
2019-03-21T02:14:17.269Z,91.5
2019-03-21T02:15:16.574Z,91.5
2019-03-21T02:16:16.872Z,91.5
2019-03-21T02:17:17.207Z,91.7
2019-03-21T02:18:16.529Z,91.7
2019-03-21T02:19:16.837Z,91.8
2019-03-21T02:20:17.162Z,91.8
2019-03-21T02:21:17.166Z,91.8
2019-03-21T02:22:16.478Z,91.9
2019-03-21T02:23:16.802Z,92.1
2019-03-21T02:24:17.096Z,92.2
2019-03-21T02:25:16.388Z,92.3
2019-03-21T02:26:16.705Z,92.2
2019-03-21T02:27:17.011Z,92.2
2019-03-21T02:28:16.340Z,92.1
2019-03-21T02:29:16.638Z,92.0
2019-03-21T02:30:16.986Z,92.0
2019-03-21T02:31:16.997Z,92.2
2019-03-21T02:32:16.315Z,92.3
2019-03-21T02:33:16.651Z,92.2
2019-03-21T02:34:16.962Z,92.2
2019-03-21T02:35:17.274Z,92.5
2019-03-21T02:36:16.583Z,92.3
2019-03-21T02:37:16.895Z,92.2
2019-03-21T02:38:17.185Z,92.2
2019-03-21T02:39:16.496Z,92.2
2019-03-21T02:40:16.814Z,92.1
2019-03-21T02:41:17.017Z,92.0
2019-03-21T02:42:16.450Z,91.9
2019-03-21T02:43:16.814Z,91.9
2019-03-21T02:44:17.177Z,92.1
2019-03-21T02:45:16.681Z,92.3
2019-03-21T02:46:17.153Z,92.2
2019-03-21T02:47:16.464Z,92.3
2019-03-21T02:48:16.763Z,92.3
2019-03-21T02:49:17.072Z,92.3
2019-03-21T02:50:16.394Z,92.2
2019-03-21T02:51:16.472Z,92.2
2019-03-21T02:52:16.786Z,92.2
2019-03-21T02:53:17.162Z,92.2
2019-03-21T02:54:16.480Z,92.2
2019-03-21T02:55:16.795Z,92.2
2019-03-21T02:56:17.096Z,92.3
2019-03-21T02:57:16.395Z,92.3
2019-03-21T02:58:16.709Z,92.4
2019-03-21T02:59:17.019Z,92.6
2019-03-21T03:00:16.339Z,92.7
2019-03-21T03:01:16.393Z,92.8
2019-03-21T03:02:16.673Z,92.8
2019-03-21T03:03:16.983Z,92.8
2019-03-21T03:04:17.306Z,92.8
2019-03-21T03:05:16.734Z,92.9
2019-03-21T03:06:17.066Z,92.8
2019-03-21T03:07:16.379Z,92.8
2019-03-21T03:08:16.697Z,92.8
2019-03-21T03:09:17.003Z,92.8
2019-03-21T03:10:16.330Z,92.8
2019-03-21T03:11:16.365Z,92.8
2019-03-21T03:12:16.686Z,92.9
2019-03-21T03:13:17.009Z,93.0
2019-03-21T03:14:16.296Z,92.9
2019-03-21T03:15:23.708Z,93.0
2019-03-21T03:16:17.075Z,93.0
2019-03-21T03:17:16.402Z,92.8
2019-03-21T03:18:16.720Z,92.7
2019-03-21T03:19:17.047Z,92.7
2019-03-21T03:20:16.353Z,92.6
2019-03-21T03:21:16.414Z,92.5
2019-03-21T03:22:16.701Z,92.5
2019-03-21T03:23:17.020Z,92.6
2019-03-21T03:24:16.330Z,92.6
2019-03-21T03:25:16.649Z,92.6
2019-03-21T03:26:16.955Z,92.6
2019-03-21T03:27:17.260Z,92.3
2019-03-21T03:28:16.587Z,92.3
2019-03-21T03:29:16.906Z,92.4
2019-03-21T03:30:17.219Z,92.6
2019-03-21T03:31:17.290Z,92.8
2019-03-21T03:32:16.642Z,92.7
2019-03-21T03:33:16.978Z,92.5
2019-03-21T03:34:17.314Z,92.6
2019-03-21T03:35:16.610Z,92.6
2019-03-21T03:36:16.955Z,92.5
2019-03-21T03:37:17.259Z,92.6
2019-03-21T03:38:16.526Z,92.6
2019-03-21T03:39:16.812Z,92.5
2019-03-21T03:40:17.118Z,92.6
2019-03-21T03:41:17.148Z,92.7
2019-03-21T03:42:16.462Z,92.8
2019-03-21T03:43:16.753Z,92.8
2019-03-21T03:44:17.070Z,92.8
2019-03-21T03:45:16.373Z,92.9
2019-03-21T03:46:16.682Z,93.0
2019-03-21T03:47:16.976Z,93.1
2019-03-21T03:48:20.329Z,93.2
2019-03-21T03:49:16.710Z,93.3
2019-03-21T03:50:17.073Z,93.5
2019-03-21T03:51:17.149Z,93.4
2019-03-21T03:52:16.481Z,93.4
2019-03-21T03:53:16.798Z,93.3
2019-03-21T03:54:17.108Z,93.3
2019-03-21T03:55:16.446Z,93.4
2019-03-21T03:56:16.812Z,93.4
2019-03-21T03:57:17.122Z,93.2
2019-03-21T03:58:16.434Z,93.2
2019-03-21T03:59:16.739Z,93.2
2019-03-21T04:00:17.061Z,93.2
2019-03-21T04:01:17.098Z,93.2
2019-03-21T04:02:16.429Z,93.2
2019-03-21T04:03:16.771Z,93.2
2019-03-21T04:04:17.050Z,93.3
2019-03-21T04:05:16.372Z,93.5
2019-03-21T04:06:16.693Z,93.5
2019-03-21T04:07:16.999Z,93.8
2019-03-21T04:08:16.299Z,93.8
2019-03-21T04:09:16.662Z,93.8
2019-03-21T04:10:17.009Z,93.8
2019-03-21T04:11:17.144Z,93.7
2019-03-21T04:12:16.461Z,93.7
2019-03-21T04:13:16.773Z,93.8
2019-03-21T04:14:17.094Z,93.8
2019-03-21T04:15:16.444Z,93.7
2019-03-21T04:16:16.739Z,93.7
2019-03-21T04:17:17.049Z,93.7
2019-03-21T04:18:16.403Z,93.8
2019-03-21T04:19:16.755Z,93.8
2019-03-21T04:20:17.061Z,93.8
2019-03-21T04:21:17.121Z,93.8
2019-03-21T04:22:16.422Z,93.8
2019-03-21T04:23:16.733Z,93.8
2019-03-21T04:24:17.044Z,93.7
2019-03-21T04:25:16.396Z,93.6
2019-03-21T04:26:16.698Z,93.5
2019-03-21T04:27:16.963Z,93.5
2019-03-21T04:28:17.262Z,93.4
2019-03-21T04:29:16.614Z,93.5
2019-03-21T04:30:16.955Z,93.7
2019-03-21T04:31:16.996Z,93.7
2019-03-21T04:32:16.295Z,93.6
2019-03-21T04:33:16.611Z,93.6
2019-03-21T04:34:16.903Z,93.6
2019-03-21T04:35:17.248Z,93.5
2019-03-21T04:36:16.533Z,93.6
2019-03-21T04:37:16.835Z,93.2
2019-03-21T04:38:17.135Z,93.1
2019-03-21T04:39:16.458Z,93.1
2019-03-21T04:40:16.783Z,93.2
2019-03-21T04:41:16.828Z,93.3
2019-03-21T04:42:17.108Z,93.3
2019-03-21T04:43:16.406Z,93.4
2019-03-21T04:44:16.717Z,93.4
2019-03-21T04:45:17.009Z,93.4
2019-03-21T04:46:16.311Z,93.4
2019-03-21T04:47:16.656Z,93.5
2019-03-21T04:48:17.005Z,93.5
2019-03-21T04:49:16.299Z,93.6
2019-03-21T04:50:16.582Z,93.7
2019-03-21T04:51:16.663Z,93.7
2019-03-21T04:52:16.974Z,93.7
2019-03-21T04:53:17.307Z,93.7
2019-03-21T04:54:16.637Z,93.7
2019-03-21T04:55:16.941Z,93.7
2019-03-21T04:56:17.219Z,93.6
2019-03-21T04:57:16.538Z,93.5
2019-03-21T04:58:16.828Z,93.3
2019-03-21T04:59:17.137Z,93.3
2019-03-21T05:00:16.443Z,93.2
2019-03-21T05:01:16.526Z,93.3
2019-03-21T05:02:16.867Z,93.2
2019-03-21T05:03:17.201Z,93.2
2019-03-21T05:04:16.506Z,93.0
2019-03-21T05:05:16.827Z,92.8
2019-03-21T05:06:17.138Z,92.9
2019-03-21T05:07:16.448Z,92.9
2019-03-21T05:08:16.759Z,93.2
2019-03-21T05:09:17.730Z,93.2
2019-03-21T05:10:17.040Z,93.2
2019-03-21T05:11:17.060Z,93.4
2019-03-21T05:12:16.392Z,93.4
2019-03-21T05:13:16.702Z,93.2
2019-03-21T05:14:17.006Z,93.2
2019-03-21T05:15:16.312Z,93.2
2019-03-21T05:16:16.620Z,93.3
2019-03-21T05:17:16.943Z,93.3
2019-03-21T05:18:17.251Z,93.4
2019-03-21T05:19:16.566Z,93.4
2019-03-21T05:20:16.950Z,93.5
2019-03-21T05:21:16.922Z,93.5
2019-03-21T05:22:17.225Z,93.5
2019-03-21T05:23:16.528Z,93.5
2019-03-21T05:24:16.847Z,93.5
2019-03-21T05:25:17.190Z,93.5
2019-03-21T05:26:16.519Z,93.5
2019-03-21T05:27:16.818Z,93.4
2019-03-21T05:28:17.133Z,93.4
2019-03-21T05:29:16.437Z,93.4
2019-03-21T05:30:16.742Z,93.3
2019-03-21T05:31:16.788Z,93.3
2019-03-21T05:32:17.083Z,93.5
2019-03-21T05:33:16.397Z,93.5
2019-03-21T05:34:16.714Z,93.5
2019-03-21T05:35:17.019Z,93.8
2019-03-21T05:36:16.304Z,93.8
2019-03-21T05:37:16.586Z,93.8
2019-03-21T05:38:16.847Z,93.7
2019-03-21T05:39:17.412Z,93.6
2019-03-21T05:40:16.733Z,93.5
2019-03-21T05:41:16.990Z,93.5
2019-03-21T05:42:16.328Z,93.6
2019-03-21T05:43:16.618Z,93.6
2019-03-21T05:44:16.906Z,93.6
2019-03-21T05:45:17.214Z,93.7
2019-03-21T05:46:27.094Z,93.7
2019-03-21T05:47:16.525Z,93.5
2019-03-21T05:48:16.816Z,93.5
2019-03-21T05:49:17.121Z,93.5
2019-03-21T05:50:16.420Z,93.4
2019-03-21T05:51:16.475Z,93.4
2019-03-21T05:52:16.786Z,93.5
2019-03-21T05:53:17.086Z,93.5
2019-03-21T05:54:16.392Z,93.4
2019-03-21T05:55:16.694Z,93.3
2019-03-21T05:56:17.011Z,93.4
2019-03-21T05:57:16.288Z,93.0
2019-03-21T05:58:16.619Z,93.1
2019-03-21T05:59:16.927Z,92.8
2019-03-21T06:00:17.253Z,92.8
2019-03-21T06:01:16.307Z,92.8
2019-03-21T06:02:16.605Z,92.7
2019-03-21T06:03:16.941Z,92.7
2019-03-21T06:04:17.273Z,92.6
2019-03-21T06:05:16.565Z,92.4
2019-03-21T06:06:17.147Z,92.3
2019-03-21T06:07:16.454Z,92.2
2019-03-21T06:08:16.739Z,92.3
2019-03-21T06:09:17.049Z,92.3
2019-03-21T06:10:16.370Z,92.4
2019-03-21T06:11:16.389Z,92.3
2019-03-21T06:12:16.694Z,92.1
2019-03-21T06:13:16.995Z,91.8
2019-03-21T06:14:16.315Z,91.5
2019-03-21T06:15:16.616Z,91.3
2019-03-21T06:16:16.917Z,91.0
2019-03-21T06:17:17.225Z,91.1
2019-03-21T06:18:16.513Z,90.9
2019-03-21T06:19:16.823Z,90.8
2019-03-21T06:20:17.146Z,90.9
2019-03-21T06:21:17.199Z,90.7
2019-03-21T06:22:16.502Z,90.3
2019-03-21T06:23:16.816Z,90.1
2019-03-21T06:24:17.109Z,90.0
2019-03-21T06:25:16.413Z,89.8
2019-03-21T06:26:16.719Z,89.5
2019-03-21T06:27:16.996Z,89.8
2019-03-21T06:28:16.278Z,89.7
2019-03-21T06:29:16.832Z,89.6
2019-03-21T06:30:17.137Z,89.4
2019-03-21T06:31:17.198Z,89.2
2019-03-21T06:32:16.498Z,88.5
2019-03-21T06:33:16.801Z,88.0
2019-03-21T06:34:17.124Z,87.6
2019-03-21T06:35:16.422Z,87.8
2019-03-21T06:36:16.733Z,87.6
2019-03-21T06:37:17.029Z,87.4
2019-03-21T06:38:16.397Z,87.5
2019-03-21T06:39:16.697Z,87.2
2019-03-21T06:40:17.071Z,87.0
2019-03-21T06:41:17.041Z,87.1
2019-03-21T06:42:16.323Z,86.3
2019-03-21T06:43:16.586Z,86.2
2019-03-21T06:44:16.882Z,86.3
2019-03-21T06:45:17.212Z,85.8
2019-03-21T06:46:16.480Z,85.1
2019-03-21T06:47:16.780Z,84.9
2019-03-21T06:48:17.085Z,84.5
2019-03-21T06:49:16.406Z,84.5
2019-03-21T06:50:16.714Z,84.4
2019-03-21T06:51:16.750Z,84.0
2019-03-21T06:52:17.045Z,83.9
2019-03-21T06:53:16.336Z,83.8
2019-03-21T06:54:16.616Z,83.7
2019-03-21T06:55:16.886Z,83.6
2019-03-21T06:56:17.189Z,83.0
2019-03-21T06:57:16.506Z,82.8
2019-03-21T06:58:16.825Z,81.8
2019-03-21T06:59:17.118Z,81.7
2019-03-21T07:00:16.435Z,81.7
2019-03-21T07:01:16.516Z,82.5
2019-03-21T07:02:16.824Z,81.8
2019-03-21T07:03:17.128Z,81.7
2019-03-21T07:04:16.459Z,81.3
2019-03-21T07:05:16.768Z,80.3
2019-03-21T07:06:17.108Z,80.1
2019-03-21T07:07:16.394Z,79.9
2019-03-21T07:08:16.716Z,79.1
2019-03-21T07:09:17.028Z,78.5
2019-03-21T07:10:16.346Z,78.3
2019-03-21T07:11:16.432Z,78.5
2019-03-21T07:12:16.692Z,78.3
2019-03-21T07:13:16.991Z,78.0
2019-03-21T07:14:17.325Z,78.6
2019-03-21T07:15:16.648Z,79.2
2019-03-21T07:16:16.947Z,79.1
2019-03-21T07:17:17.370Z,78.1
2019-03-21T07:18:16.724Z,77.7
2019-03-21T07:19:17.047Z,77.5
2019-03-21T07:20:16.377Z,77.2
2019-03-21T07:21:16.361Z,76.6
2019-03-21T07:22:16.675Z,77.1
2019-03-21T07:23:16.998Z,77.2
2019-03-21T07:24:16.307Z,76.4
2019-03-21T07:25:16.608Z,75.7
2019-03-21T07:26:16.912Z,74.5
2019-03-21T07:27:17.219Z,73.7
2019-03-21T07:28:16.519Z,72.5
2019-03-21T07:29:16.824Z,72.2
2019-03-21T07:30:17.141Z,71.7
2019-03-21T07:31:17.172Z,70.6
2019-03-21T07:32:16.490Z,70.2
2019-03-21T07:33:16.784Z,71.0
2019-03-21T07:34:17.096Z,71.4
2019-03-21T07:35:16.434Z,70.0
2019-03-21T07:36:16.742Z,69.4
2019-03-21T07:37:17.014Z,68.7
2019-03-21T07:38:16.297Z,68.5
2019-03-21T07:39:16.592Z,68.6
2019-03-21T07:40:16.889Z,69.3
2019-03-21T07:41:16.967Z,70.0
2019-03-21T07:42:17.273Z,69.9
2019-03-21T07:43:16.591Z,68.8
2019-03-21T07:44:16.870Z,68.5
2019-03-21T07:45:17.631Z,68.2
2019-03-21T07:46:16.967Z,67.9
2019-03-21T07:47:17.306Z,68.0
2019-03-21T07:48:16.585Z,67.5
2019-03-21T07:49:16.891Z,67.2
2019-03-21T07:50:17.256Z,66.6
2019-03-21T07:51:17.265Z,66.1
2019-03-21T07:52:16.574Z,65.6
2019-03-21T07:53:16.880Z,65.1
2019-03-21T07:54:17.202Z,64.8
2019-03-21T07:55:16.504Z,64.5
2019-03-21T07:56:16.811Z,63.8
2019-03-21T07:57:17.128Z,63.1
2019-03-21T07:58:16.414Z,63.2
2019-03-21T07:59:16.700Z,63.0
2019-03-21T08:00:17.018Z,62.9
2019-03-21T08:01:17.057Z,61.9
2019-03-21T08:02:16.383Z,61.6
2019-03-21T08:03:16.707Z,60.7
2019-03-21T08:04:16.997Z,61.1
2019-03-21T08:05:16.297Z,60.5
2019-03-21T08:06:16.611Z,60.5
2019-03-21T08:07:16.952Z,59.9
2019-03-21T08:08:17.275Z,60.1
2019-03-21T08:09:16.590Z,60.4
2019-03-21T08:10:16.896Z,59.7
2019-03-21T08:11:16.943Z,58.8
2019-03-21T08:12:17.226Z,58.8
2019-03-21T08:13:16.558Z,58.8
2019-03-21T08:14:16.826Z,59.0
2019-03-21T08:15:17.151Z,59.0
2019-03-21T08:16:16.477Z,60.5
2019-03-21T08:17:16.760Z,61.0
2019-03-21T08:18:17.064Z,60.7
2019-03-21T08:19:16.368Z,59.3
2019-03-21T08:20:16.683Z,58.9
2019-03-21T08:21:16.713Z,57.4
2019-03-21T08:22:17.021Z,57.2
2019-03-21T08:23:16.323Z,58.0
2019-03-21T08:24:16.641Z,59.4
2019-03-21T08:25:16.953Z,58.7
2019-03-21T08:26:17.253Z,58.3
2019-03-21T08:27:16.597Z,58.9
2019-03-21T08:28:16.914Z,59.8
2019-03-21T08:29:17.245Z,59.4
2019-03-21T08:30:16.560Z,60.0
2019-03-21T08:31:16.628Z,60.4
2019-03-21T08:32:16.905Z,59.3
2019-03-21T08:33:17.215Z,59.5
2019-03-21T08:34:16.543Z,58.6
2019-03-21T08:35:16.804Z,58.5
2019-03-21T08:36:17.121Z,56.5
2019-03-21T08:37:16.445Z,55.9
2019-03-21T08:38:16.725Z,56.6
2019-03-21T08:39:17.045Z,56.8
2019-03-21T08:40:16.357Z,57.3
2019-03-21T08:41:16.473Z,58.5
2019-03-21T08:42:16.814Z,60.1
2019-03-21T08:43:17.132Z,59.5
2019-03-21T08:44:16.441Z,58.1
2019-03-21T08:45:16.765Z,57.0
2019-03-21T08:46:17.082Z,55.6
2019-03-21T08:47:16.400Z,55.5
2019-03-21T08:48:16.707Z,55.2
2019-03-21T08:49:17.004Z,54.8
2019-03-21T08:50:16.328Z,54.3
2019-03-21T08:51:16.339Z,53.3
2019-03-21T08:52:16.635Z,53.2
2019-03-21T08:53:16.939Z,53.5
2019-03-21T08:54:17.231Z,54.6
2019-03-21T08:55:16.548Z,56.0
2019-03-21T08:56:16.859Z,54.7
2019-03-21T08:57:17.161Z,54.5
2019-03-21T08:58:16.470Z,54.4
2019-03-21T08:59:16.770Z,53.2
2019-03-21T09:00:17.108Z,53.3
2019-03-21T09:01:17.150Z,51.4
2019-03-21T09:02:16.456Z,51.5
2019-03-21T09:03:16.765Z,51.2
2019-03-21T09:04:17.058Z,51.6
2019-03-21T09:05:16.358Z,49.2
2019-03-21T09:06:16.705Z,49.0
2019-03-21T09:07:17.016Z,49.5
2019-03-21T09:08:16.312Z,48.8
2019-03-21T09:09:16.624Z,48.3
2019-03-21T09:10:17.007Z,48.9
2019-03-21T09:11:16.938Z,48.2
2019-03-21T09:12:17.233Z,47.5
2019-03-21T09:13:16.543Z,47.5
2019-03-21T09:14:16.847Z,47.1
2019-03-21T09:15:17.196Z,46.6
2019-03-21T09:16:16.536Z,46.3
2019-03-21T09:17:16.855Z,46.3
2019-03-21T09:18:17.170Z,46.7
2019-03-21T09:19:16.455Z,47.0
2019-03-21T09:20:19.134Z,47.0
2019-03-21T09:21:20.342Z,46.0
2019-03-21T09:22:16.665Z,46.9
2019-03-21T09:23:16.962Z,47.1
2019-03-21T09:24:17.298Z,47.5
2019-03-21T09:25:16.657Z,46.9
2019-03-21T09:26:16.960Z,46.1
2019-03-21T09:27:17.248Z,45.4
2019-03-21T09:28:16.555Z,45.6
2019-03-21T09:29:16.838Z,45.7
2019-03-21T09:30:17.137Z,47.7
2019-03-21T09:31:17.209Z,48.0
2019-03-21T09:32:16.687Z,46.5
2019-03-21T09:33:16.988Z,46.3
2019-03-21T09:34:17.303Z,45.6
2019-03-21T09:35:16.611Z,45.5
2019-03-21T09:36:16.914Z,46.3
2019-03-21T09:37:17.230Z,46.4
2019-03-21T09:38:16.535Z,46.9
2019-03-21T09:39:16.879Z,46.8
2019-03-21T09:40:17.202Z,46.1
2019-03-21T09:41:17.275Z,46.8
2019-03-21T09:42:16.565Z,46.6
2019-03-21T09:43:16.859Z,46.5
2019-03-21T09:44:17.170Z,46.2
2019-03-21T09:45:16.524Z,46.5
2019-03-21T09:46:16.818Z,44.6
2019-03-21T09:47:17.157Z,44.8
2019-03-21T09:48:16.461Z,43.8
2019-03-21T09:49:16.772Z,43.5
2019-03-21T09:50:17.103Z,43.5
2019-03-21T09:51:17.102Z,43.1
2019-03-21T09:52:16.409Z,43.4
2019-03-21T09:53:16.705Z,43.2
2019-03-21T09:54:17.034Z,43.2
2019-03-21T09:55:16.363Z,44.5
2019-03-21T09:56:16.634Z,43.4
2019-03-21T09:57:16.903Z,43.2
2019-03-21T09:58:17.204Z,43.4
2019-03-21T09:59:16.510Z,42.8
2019-03-21T10:00:16.809Z,43.0
2019-03-21T10:01:16.858Z,44.0
2019-03-21T10:02:17.172Z,42.2
2019-03-21T10:03:16.475Z,42.5
2019-03-21T10:04:16.812Z,41.7
2019-03-21T10:05:17.132Z,41.7
2019-03-21T10:06:16.447Z,42.3
2019-03-21T10:07:16.718Z,42.2
2019-03-21T10:08:17.017Z,42.1
2019-03-21T10:09:16.355Z,42.6
2019-03-21T10:10:16.673Z,44.5
2019-03-21T10:11:16.709Z,45.2
2019-03-21T10:12:17.006Z,45.5
2019-03-21T10:13:16.309Z,46.2
2019-03-21T10:14:16.676Z,46.5
2019-03-21T10:15:16.978Z,46.0
2019-03-21T10:16:17.273Z,45.7
2019-03-21T10:17:16.581Z,45.0
2019-03-21T10:18:16.882Z,44.5
2019-03-21T10:19:17.202Z,45.5
2019-03-21T10:20:16.523Z,46.6
2019-03-21T10:21:16.607Z,47.5
2019-03-21T10:22:16.930Z,48.9
2019-03-21T10:23:17.224Z,46.8
2019-03-21T10:24:16.540Z,46.6
2019-03-21T10:25:16.882Z,45.7
2019-03-21T10:26:17.214Z,42.1
2019-03-21T10:27:16.511Z,41.5
2019-03-21T10:28:16.860Z,41.5
2019-03-21T10:29:17.144Z,43.0
2019-03-21T10:30:16.464Z,44.0
2019-03-21T10:31:16.513Z,44.4
2019-03-21T10:32:16.817Z,45.2
2019-03-21T10:33:17.124Z,44.5
2019-03-21T10:34:16.457Z,41.8
2019-03-21T10:35:16.775Z,40.5
2019-03-21T10:36:17.080Z,41.2
2019-03-21T10:37:16.386Z,41.4
2019-03-21T10:38:16.673Z,40.0
2019-03-21T10:39:16.965Z,40.3
2019-03-21T10:40:17.276Z,39.1
2019-03-21T10:41:16.320Z,38.4
2019-03-21T10:42:16.619Z,38.0
2019-03-21T10:43:16.904Z,37.4
2019-03-21T10:44:17.216Z,37.4
2019-03-21T10:45:16.531Z,36.2
2019-03-21T10:46:16.831Z,36.1
2019-03-21T10:47:17.177Z,36.0
2019-03-21T10:48:16.510Z,36.4
2019-03-21T10:49:16.821Z,37.0
2019-03-21T10:50:17.085Z,37.8
2019-03-21T10:51:17.187Z,36.8
2019-03-21T10:52:16.506Z,36.3
2019-03-21T10:53:16.809Z,36.2
2019-03-21T10:54:17.095Z,37.5
2019-03-21T10:55:16.402Z,37.6
2019-03-21T10:56:16.715Z,38.0
2019-03-21T10:57:17.016Z,36.1
2019-03-21T10:58:16.320Z,37.0
2019-03-21T10:59:16.640Z,36.8
2019-03-21T11:00:16.928Z,36.6
2019-03-21T11:01:17.036Z,36.0
2019-03-21T11:02:16.335Z,35.4
2019-03-21T11:03:16.658Z,36.5
2019-03-21T11:04:16.985Z,34.9
2019-03-21T11:05:16.316Z,35.2
2019-03-21T11:06:16.613Z,35.2
2019-03-21T11:07:16.910Z,34.9
2019-03-21T11:08:17.246Z,35.5
2019-03-21T11:09:16.568Z,36.1
2019-03-21T11:10:16.881Z,36.0
2019-03-21T11:11:16.886Z,35.1
2019-03-21T11:12:17.202Z,34.0
2019-03-21T11:13:16.511Z,35.1
2019-03-21T11:14:16.799Z,35.2
2019-03-21T11:15:17.104Z,35.6
2019-03-21T11:16:16.395Z,35.2
2019-03-21T11:17:16.713Z,35.2
2019-03-21T11:18:17.029Z,34.4
2019-03-21T11:19:16.346Z,34.0
2019-03-21T11:20:16.644Z,33.4
2019-03-21T11:21:16.712Z,34.5
2019-03-21T11:22:17.021Z,32.5
2019-03-21T11:23:16.328Z,31.7
2019-03-21T11:24:16.667Z,32.4
2019-03-21T11:25:16.984Z,32.5
2019-03-21T11:26:16.327Z,32.9
2019-03-21T11:27:16.632Z,33.1
2019-03-21T11:28:17.963Z,32.7
2019-03-21T11:29:17.244Z,32.2
2019-03-21T11:30:16.617Z,32.0
2019-03-21T11:31:16.655Z,32.3
2019-03-21T11:32:17.086Z,32.0
2019-03-21T11:33:16.356Z,30.6
2019-03-21T11:34:16.669Z,30.4
2019-03-21T11:35:16.984Z,29.2
2019-03-21T11:36:17.272Z,30.1
2019-03-21T11:37:16.583Z,29.4
2019-03-21T11:38:16.893Z,28.8
2019-03-21T11:39:17.198Z,30.1
2019-03-21T11:40:16.501Z,29.5
2019-03-21T11:41:16.571Z,29.5
2019-03-21T11:42:17.087Z,30.8
2019-03-21T11:43:16.431Z,29.4
2019-03-21T11:44:16.765Z,29.1
2019-03-21T11:45:17.075Z,29.4
2019-03-21T11:46:16.387Z,28.5
2019-03-21T11:47:16.702Z,29.2
2019-03-21T11:48:17.181Z,28.6
2019-03-21T11:49:16.553Z,29.0
2019-03-21T11:50:16.875Z,28.9
2019-03-21T11:51:16.923Z,29.5
2019-03-21T11:52:18.863Z,27.6
2019-03-21T11:53:17.239Z,28.8
2019-03-21T11:54:16.572Z,28.9
2019-03-21T11:55:16.934Z,29.4
2019-03-21T11:56:17.248Z,30.1
2019-03-21T11:57:16.566Z,29.9
2019-03-21T11:58:18.003Z,30.3
2019-03-21T11:59:16.331Z,31.3
2019-03-21T12:00:16.672Z,31.3
2019-03-21T12:01:16.706Z,31.5
2019-03-21T12:02:27.513Z,31.1
2019-03-21T12:03:16.899Z,30.3
2019-03-21T12:04:17.206Z,30.3
2019-03-21T12:05:16.496Z,30.5
2019-03-21T12:06:16.804Z,31.5
2019-03-21T12:07:17.109Z,31.9
2019-03-21T12:08:16.410Z,32.4
2019-03-21T12:09:16.709Z,33.8
2019-03-21T12:10:17.056Z,33.6
2019-03-21T12:11:17.073Z,32.3
2019-03-21T12:12:16.449Z,32.9
2019-03-21T12:13:16.763Z,33.8
2019-03-21T12:14:17.095Z,33.2
2019-03-21T12:15:16.388Z,33.9
2019-03-21T12:16:16.666Z,33.8
2019-03-21T12:17:16.967Z,33.4
2019-03-21T12:18:17.255Z,33.4
2019-03-21T12:19:16.559Z,33.1
2019-03-21T12:20:16.858Z,34.2
2019-03-21T12:21:16.948Z,34.0
2019-03-21T12:22:17.264Z,33.0
2019-03-21T12:23:16.590Z,32.9
2019-03-21T12:24:16.901Z,33.1
2019-03-21T12:25:17.202Z,32.6
2019-03-21T12:26:16.551Z,33.5
2019-03-21T12:27:16.901Z,33.2
2019-03-21T12:28:17.221Z,31.6
2019-03-21T12:29:16.567Z,33.2
2019-03-21T12:30:16.834Z,32.2
2019-03-21T12:31:16.938Z,30.7
2019-03-21T12:32:17.270Z,31.6
2019-03-21T12:33:16.574Z,31.6
2019-03-21T12:34:16.917Z,32.5
2019-03-21T12:35:17.224Z,33.0
2019-03-21T12:36:16.538Z,32.5
2019-03-21T12:37:16.848Z,32.4
2019-03-21T12:38:17.155Z,32.1
2019-03-21T12:39:16.453Z,32.2
2019-03-21T12:40:16.776Z,31.9
2019-03-21T12:41:16.799Z,31.0
2019-03-21T12:42:17.128Z,30.1
2019-03-21T12:43:16.473Z,30.6
2019-03-21T12:44:16.800Z,30.8
2019-03-21T12:45:17.106Z,30.4
2019-03-21T12:46:16.437Z,30.3
2019-03-21T12:47:16.715Z,30.8
2019-03-21T12:48:17.029Z,30.8
2019-03-21T12:49:16.314Z,31.2
2019-03-21T12:50:16.602Z,30.6
2019-03-21T12:51:16.652Z,30.9
2019-03-21T12:52:16.933Z,31.4
2019-03-21T12:53:17.245Z,31.0
2019-03-21T12:54:16.580Z,31.4
2019-03-21T12:55:16.890Z,31.5
2019-03-21T12:56:17.229Z,30.4
2019-03-21T12:57:16.572Z,30.6
2019-03-21T12:58:16.874Z,31.3
2019-03-21T12:59:17.201Z,31.0
2019-03-21T13:00:16.510Z,29.0
2019-03-21T13:01:16.578Z,29.6
2019-03-21T13:02:16.893Z,30.1
2019-03-21T13:03:17.222Z,30.9
2019-03-21T13:04:16.532Z,29.9
2019-03-21T13:05:16.849Z,30.3
2019-03-21T13:06:17.159Z,29.4
2019-03-21T13:07:17.254Z,29.6
2019-03-21T13:08:16.711Z,29.9
2019-03-21T13:09:17.025Z,30.2
2019-03-21T13:10:16.333Z,29.6
2019-03-21T13:11:16.411Z,30.3
2019-03-21T13:12:16.732Z,29.4
2019-03-21T13:13:17.031Z,30.1
2019-03-21T13:14:16.329Z,29.5
2019-03-21T13:15:16.644Z,31.2
2019-03-21T13:16:16.940Z,31.1
2019-03-21T13:17:17.243Z,29.2
2019-03-21T13:18:16.538Z,29.3